createdAt,value
2022-12-19T00:01:34.762Z,41.33
2022-12-19T00:04:08.187Z,47.47
2022-12-19T00:06:37.393Z,48.70
2022-12-19T00:09:05.433Z,47.60
2022-12-19T00:11:32.735Z,47.07
2022-12-19T00:14:00.074Z,53.70
2022-12-19T00:16:29.120Z,46.03
2022-12-19T00:18:58.818Z,46.93
2022-12-19T00:21:28.757Z,51.03
2022-12-19T00:23:55.580Z,47.90
2022-12-19T00:26:27.454Z,52.13
2022-12-19T00:28:59.944Z,57.90
2022-12-19T00:31:30.136Z,56.33
2022-12-19T00:33:57.318Z,50.30
2022-12-19T00:36:29.051Z,52.27
2022-12-19T00:38:57.833Z,53.53
2022-12-19T00:41:29.988Z,52.23
2022-12-19T00:44:04.950Z,52.97
2022-12-19T00:46:32.825Z,53.00
2022-12-19T00:48:59.914Z,48.97
2022-12-19T00:51:29.172Z,52.17
2022-12-19T00:53:57.259Z,53.67
2022-12-19T00:56:27.135Z,52.40
2022-12-19T00:58:54.684Z,50.73
2022-12-19T01:01:23.884Z,49.60
2022-12-19T01:04:26.613Z,52.87
2022-12-19T01:06:37.951Z,44.63
2022-12-19T01:09:05.283Z,47.20
2022-12-19T01:11:50.373Z,49.80
2022-12-19T01:14:22.776Z,49.90
2022-12-19T01:16:50.739Z,46.67
2022-12-19T01:19:18.995Z,49.80
2022-12-19T01:21:45.905Z,49.90
2022-12-19T01:24:12.676Z,46.43
2022-12-19T01:26:40.426Z,46.03
2022-12-19T01:29:07.241Z,48.73
2022-12-19T01:31:34.148Z,51.47
2022-12-19T01:34:02.927Z,51.07
2022-12-19T01:36:29.615Z,49.07
2022-12-19T01:38:58.050Z,46.07
2022-12-19T01:41:27.186Z,51.33
2022-12-19T01:44:08.451Z,49.43
2022-12-19T01:46:45.969Z,45.80
2022-12-19T01:49:25.892Z,47.57
2022-12-19T01:51:56.442Z,51.03
2022-12-19T01:54:31.324Z,50.80
2022-12-19T01:56:59.403Z,46.53
2022-12-19T01:59:32.586Z,47.60
2022-12-19T02:02:07.973Z,48.37
2022-12-19T02:04:36.111Z,54.10
2022-12-19T02:07:13.478Z,48.07
2022-12-19T02:09:50.552Z,48.67
2022-12-19T02:12:33.445Z,52.97
2022-12-19T02:15:03.211Z,48.07
2022-12-19T02:17:50.869Z,45.53
2022-12-19T02:20:32.813Z,46.47
2022-12-19T02:23:27.180Z,48.57
2022-12-19T02:26:23.914Z,49.23
2022-12-19T02:29:14.882Z,46.23
2022-12-19T02:31:54.744Z,49.83
2022-12-19T02:34:55.747Z,45.43
2022-12-19T02:37:30.757Z,42.90
2022-12-19T02:40:13.821Z,47.30
2022-12-19T02:42:44.699Z,48.63
2022-12-19T02:45:20.056Z,43.47
2022-12-19T02:47:55.716Z,51.13
2022-12-19T02:50:22.720Z,49.20
2022-12-19T02:52:50.705Z,45.17
2022-12-19T02:55:22.470Z,50.10
2022-12-19T02:58:02.233Z,47.53
2022-12-19T03:00:29.623Z,48.73
2022-12-19T03:03:10.938Z,53.93
2022-12-19T03:06:08.395Z,43.10
2022-12-19T03:08:49.040Z,46.17
2022-12-19T03:11:16.151Z,49.70
2022-12-19T03:13:47.320Z,47.50
2022-12-19T03:16:14.920Z,48.00
2022-12-19T03:18:42.640Z,44.03
2022-12-19T03:21:12.860Z,43.53
2022-12-19T03:23:40.470Z,43.07
2022-12-19T03:26:11.227Z,42.43
2022-12-19T03:28:49.706Z,51.00
2022-12-19T03:31:20.320Z,44.77
2022-12-19T03:33:49.825Z,48.47
2022-12-19T03:36:22.682Z,44.60
2022-12-19T03:38:49.943Z,43.80
2022-12-19T03:41:38.804Z,46.53
2022-12-19T03:44:07.546Z,43.37
2022-12-19T03:46:39.471Z,47.30
2022-12-19T03:49:07.079Z,46.47
2022-12-19T03:51:57.865Z,41.93
2022-12-19T03:54:33.790Z,47.67
2022-12-19T03:57:17.131Z,51.83
2022-12-19T04:00:01.872Z,45.33
2022-12-19T04:02:29.925Z,49.97
2022-12-19T04:05:02.270Z,43.83
2022-12-19T04:07:29.603Z,43.97
2022-12-19T04:09:59.991Z,49.57
2022-12-19T04:12:32.080Z,44.53
2022-12-19T04:14:58.882Z,47.53
2022-12-19T04:17:47.123Z,43.53
2022-12-19T04:20:26.254Z,45.97
2022-12-19T04:23:06.641Z,44.57
2022-12-19T04:25:37.254Z,45.13
2022-12-19T04:28:20.051Z,45.53
2022-12-19T04:30:49.632Z,46.57
2022-12-19T04:33:16.364Z,42.93
2022-12-19T04:35:43.106Z,47.10
2022-12-19T04:38:09.811Z,47.17
2022-12-19T04:40:40.808Z,41.27
2022-12-19T04:43:08.645Z,43.97
2022-12-19T04:45:35.579Z,42.40
2022-12-19T04:48:03.316Z,47.43
2022-12-19T04:50:29.983Z,43.23
2022-12-19T04:52:57.278Z,46.87
2022-12-19T04:55:24.077Z,44.90
2022-12-19T04:57:50.801Z,41.53
2022-12-19T05:00:17.771Z,41.83
2022-12-19T05:02:45.596Z,38.83
2022-12-19T05:05:12.537Z,39.30
2022-12-19T05:07:40.514Z,42.87
2022-12-19T05:10:07.972Z,46.67
2022-12-19T05:12:34.814Z,42.77
2022-12-19T05:15:01.557Z,40.13
2022-12-19T05:17:28.225Z,40.40
2022-12-19T05:19:54.914Z,35.93
2022-12-19T05:22:21.563Z,38.77
2022-12-19T05:24:48.237Z,38.43
2022-12-19T05:27:14.992Z,37.63
2022-12-19T05:29:41.839Z,38.93
2022-12-19T05:32:08.559Z,36.73
2022-12-19T05:34:35.207Z,39.07
2022-12-19T05:37:03.434Z,35.10
2022-12-19T05:39:30.718Z,36.33
2022-12-19T05:41:57.432Z,39.70
2022-12-19T05:44:24.926Z,38.53
2022-12-19T05:46:52.029Z,36.57
2022-12-19T05:49:18.911Z,37.03
2022-12-19T05:51:46.264Z,36.70
2022-12-19T05:54:13.135Z,37.27
2022-12-19T05:56:39.894Z,36.03
2022-12-19T05:59:06.726Z,38.43
2022-12-19T06:01:33.469Z,39.50
2022-12-19T06:04:00.243Z,37.03
2022-12-19T06:06:27.422Z,38.27
2022-12-19T06:08:58.707Z,43.07
2022-12-19T06:11:26.246Z,42.10
2022-12-19T06:13:53.528Z,40.20
2022-12-19T06:16:22.133Z,41.03
2022-12-19T06:18:49.167Z,46.40
2022-12-19T06:21:18.270Z,48.73
2022-12-19T06:26:47.130Z,42.40
2022-12-19T06:29:13.880Z,46.73
2022-12-19T06:31:40.587Z,51.07
2022-12-19T06:34:08.913Z,47.57
2022-12-19T06:36:35.648Z,45.70
2022-12-19T06:39:02.740Z,50.53
2022-12-19T06:41:47.752Z,43.10
2022-12-19T06:44:16.948Z,43.53
2022-12-19T06:46:44.497Z,46.50
2022-12-19T06:49:11.985Z,42.00
2022-12-19T06:51:38.698Z,46.93
2022-12-19T06:54:05.630Z,45.80
2022-12-19T06:56:37.000Z,40.63
2022-12-19T06:59:04.420Z,43.40
2022-12-19T07:01:54.309Z,38.77
2022-12-19T07:04:29.735Z,39.03
2022-12-19T07:06:56.921Z,40.87
2022-12-19T07:09:23.628Z,44.57
2022-12-19T07:11:50.300Z,45.40
2022-12-19T07:14:17.035Z,40.67
2022-12-19T07:16:43.807Z,35.50
2022-12-19T07:19:10.881Z,38.63
2022-12-19T07:21:38.441Z,35.17
2022-12-19T07:24:06.422Z,39.40
2022-12-19T07:26:35.293Z,36.53
2022-12-19T07:29:02.268Z,33.07
2022-12-19T07:31:28.941Z,38.83
2022-12-19T07:33:55.700Z,38.07
2022-12-19T07:36:22.376Z,39.43
2022-12-19T07:38:50.580Z,38.40
2022-12-19T07:41:17.847Z,37.40
2022-12-19T07:43:45.633Z,37.57
2022-12-19T07:46:12.379Z,43.40
2022-12-19T07:48:39.246Z,34.93
2022-12-19T07:51:06.322Z,34.67
2022-12-19T07:53:33.181Z,37.13
2022-12-19T07:55:59.910Z,38.83
2022-12-19T07:58:26.590Z,36.53
2022-12-19T08:00:57.832Z,37.53
2022-12-19T08:03:24.981Z,40.10
2022-12-19T08:05:51.778Z,35.63
2022-12-19T08:08:18.522Z,40.23
2022-12-19T08:10:45.212Z,38.17
2022-12-19T08:13:11.932Z,40.37
2022-12-19T08:15:38.723Z,42.37
2022-12-19T08:18:05.516Z,37.77
2022-12-19T08:20:32.233Z,39.27
2022-12-19T08:22:58.977Z,34.70
2022-12-19T08:25:25.681Z,36.70
2022-12-19T08:27:52.355Z,33.30
2022-12-19T08:30:19.253Z,37.60
2022-12-19T08:32:46.194Z,42.50
2022-12-19T08:35:13.152Z,41.13
2022-12-19T08:37:39.908Z,38.50
2022-12-19T08:40:07.361Z,33.93
2022-12-19T08:42:34.023Z,33.43
2022-12-19T08:45:00.747Z,32.00
2022-12-19T08:47:27.482Z,38.03
2022-12-19T08:49:54.628Z,36.00
2022-12-19T08:52:21.339Z,35.80
2022-12-19T08:54:48.319Z,38.73
2022-12-19T08:57:15.439Z,37.37
2022-12-19T08:59:42.201Z,34.33
2022-12-19T09:02:10.572Z,30.00
2022-12-19T09:05:57.825Z,28.17
2022-12-19T09:07:24.422Z,31.57
2022-12-19T09:09:51.174Z,25.50
2022-12-19T09:12:18.059Z,30.63
2022-12-19T09:14:44.885Z,28.33
2022-12-19T09:17:11.818Z,31.77
2022-12-19T09:19:38.573Z,35.00
2022-12-19T09:22:06.674Z,34.03
2022-12-19T09:24:33.421Z,32.80
2022-12-19T09:27:00.144Z,35.63
2022-12-19T09:29:33.530Z,34.20
2022-12-19T09:32:01.941Z,35.53
2022-12-19T09:34:36.735Z,30.50
2022-12-19T09:37:15.941Z,34.27
2022-12-19T09:39:43.337Z,34.83
2022-12-19T09:42:24.846Z,30.43
2022-12-19T09:45:31.332Z,32.63
2022-12-19T09:48:01.293Z,31.93
2022-12-19T09:50:53.303Z,30.23
2022-12-19T09:53:29.116Z,33.23
2022-12-19T09:55:59.574Z,27.23
2022-12-19T09:58:41.189Z,28.90
2022-12-19T10:01:36.194Z,30.97
2022-12-19T10:04:24.564Z,27.37
2022-12-19T10:07:19.772Z,29.70
2022-12-19T10:12:34.423Z,32.50
2022-12-19T10:12:47.857Z,28.73
2022-12-19T10:15:39.583Z,25.97
2022-12-19T10:18:31.858Z,27.63
2022-12-19T10:21:05.370Z,30.77
2022-12-19T10:24:10.221Z,25.03
2022-12-19T10:26:54.080Z,24.27
2022-12-19T10:29:33.090Z,26.73
2022-12-19T10:32:06.217Z,28.37
2022-12-19T10:34:41.192Z,28.50
2022-12-19T10:37:26.538Z,29.50
2022-12-19T10:40:28.466Z,28.37
2022-12-19T10:43:10.865Z,26.83
2022-12-19T10:45:48.169Z,25.63
2022-12-19T10:48:22.465Z,27.00
2022-12-19T10:50:57.656Z,27.57
2022-12-19T10:53:29.454Z,27.13
2022-12-19T10:56:02.124Z,31.03
2022-12-19T10:58:37.569Z,30.13
2022-12-19T11:01:12.926Z,30.53
2022-12-19T11:03:42.946Z,29.17
2022-12-19T11:06:34.657Z,29.13
2022-12-19T11:09:25.135Z,28.07
2022-12-19T11:15:19.523Z,30.83
2022-12-19T11:20:07.125Z,26.80
2022-12-19T11:24:30.023Z,24.53
2022-12-19T11:29:18.860Z,30.20
2022-12-19T11:29:54.117Z,39.47
2022-12-19T11:30:35.708Z,75.43
2022-12-19T11:32:44.920Z,29.43
2022-12-19T11:35:36.789Z,27.07
2022-12-19T11:38:08.301Z,28.83
2022-12-19T11:41:09.844Z,28.07
2022-12-19T11:44:02.162Z,33.93
2022-12-19T11:46:40.651Z,27.37
2022-12-19T11:49:34.733Z,23.67
2022-12-19T11:52:29.527Z,24.07
2022-12-19T11:55:04.298Z,28.47
2022-12-19T11:57:31.594Z,31.03
2022-12-19T12:00:03.083Z,29.10
2022-12-19T12:02:31.776Z,26.50
2022-12-19T12:05:35.966Z,24.93
2022-12-19T12:12:14.831Z,25.97
2022-12-19T12:19:04.496Z,25.00
2022-12-19T12:27:25.861Z,24.60
2022-12-19T12:28:12.465Z,22.77
2022-12-19T12:31:10.259Z,27.27
2022-12-19T12:31:10.493Z,28.50
2022-12-19T12:32:04.832Z,32.60
2022-12-19T12:35:33.020Z,29.87
2022-12-19T12:40:27.389Z,27.77
2022-12-19T12:43:00.506Z,24.80
2022-12-19T12:45:44.860Z,28.00
2022-12-19T12:48:24.826Z,26.20
2022-12-19T12:50:55.335Z,27.40
2022-12-19T12:53:26.656Z,28.90
2022-12-19T12:55:56.842Z,23.77
2022-12-19T12:58:42.931Z,25.20
2022-12-19T13:01:17.089Z,25.53
2022-12-19T13:03:54.217Z,25.43
2022-12-19T13:06:24.888Z,24.40
2022-12-19T13:08:55.764Z,22.43
2022-12-19T13:11:44.585Z,21.87
2022-12-19T13:14:36.127Z,22.43
2022-12-19T13:17:07.786Z,19.63
2022-12-19T13:19:39.909Z,25.93
2022-12-19T13:22:16.498Z,26.87
2022-12-19T13:24:55.555Z,25.23
2022-12-19T13:27:22.544Z,24.00
2022-12-19T13:30:01.330Z,23.90
2022-12-19T13:32:54.258Z,21.47
2022-12-19T13:37:04.129Z,23.60
2022-12-19T13:39:54.622Z,19.90
2022-12-19T13:41:45.202Z,20.53
2022-12-19T13:44:12.325Z,22.60
2022-12-19T13:46:46.141Z,23.53
2022-12-19T13:49:18.972Z,20.27
2022-12-19T13:51:57.140Z,19.83
2022-12-19T13:54:31.927Z,12.87
2022-12-19T13:57:01.819Z,12.30
2022-12-19T13:59:39.729Z,23.33
2022-12-19T14:02:21.804Z,24.77
2022-12-19T14:04:48.748Z,23.30
2022-12-19T14:07:38.026Z,21.57
2022-12-19T14:11:41.243Z,25.57
2022-12-19T14:13:56.968Z,23.87
2022-12-19T14:16:39.760Z,25.07
2022-12-19T14:19:29.911Z,24.77
2022-12-19T14:22:25.827Z,24.53
2022-12-19T14:25:50.221Z,26.03
2022-12-19T14:28:22.085Z,22.93
2022-12-19T14:30:57.383Z,25.37
2022-12-19T14:33:44.637Z,23.23
2022-12-19T14:36:27.093Z,26.80
2022-12-19T14:39:25.330Z,27.57
2022-12-19T14:42:03.634Z,27.03
2022-12-19T14:52:35.689Z,27.67
2022-12-19T14:54:10.842Z,26.63
2022-12-19T14:54:13.937Z,26.77
2022-12-19T14:54:52.768Z,28.27
2022-12-19T14:56:57.672Z,31.07
2022-12-19T14:59:05.520Z,30.57
2022-12-19T15:01:34.653Z,32.37
2022-12-19T15:04:52.199Z,26.87
2022-12-19T15:07:12.297Z,28.13
2022-12-19T15:11:07.604Z,31.40
2022-12-19T15:14:48.524Z,25.07
2022-12-19T15:16:05.848Z,29.97
2022-12-19T15:18:32.714Z,27.37
2022-12-19T15:21:01.892Z,30.23
2022-12-19T15:23:29.546Z,28.43
2022-12-19T15:26:04.074Z,30.03
2022-12-19T15:28:40.129Z,34.03
2022-12-19T15:31:27.225Z,34.17
2022-12-19T15:36:41.456Z,26.07
2022-12-19T15:39:08.187Z,26.57
2022-12-19T15:41:35.460Z,30.93
2022-12-19T15:44:14.996Z,29.13
2022-12-19T15:46:48.406Z,32.10
2022-12-19T15:49:20.425Z,31.97
2022-12-19T15:51:48.065Z,28.80
2022-12-19T15:54:47.862Z,33.17
2022-12-19T15:57:01.905Z,31.23
2022-12-19T15:59:37.781Z,35.13
2022-12-19T16:02:16.431Z,35.80
2022-12-19T16:04:44.005Z,34.07
2022-12-19T16:07:18.670Z,37.97
2022-12-19T16:13:28.721Z,33.97
2022-12-19T16:15:56.433Z,35.73
2022-12-19T16:18:23.448Z,37.37
2022-12-19T16:20:50.290Z,37.27
2022-12-19T16:23:17.547Z,35.00
2022-12-19T16:25:49.602Z,37.93
2022-12-19T16:28:29.700Z,35.33
2022-12-19T16:31:00.537Z,32.57
2022-12-19T16:33:29.595Z,42.07
2022-12-19T16:36:05.662Z,38.67
2022-12-19T16:38:33.621Z,38.67
2022-12-19T16:41:01.632Z,31.13
2022-12-19T16:43:31.860Z,36.73
2022-12-19T16:46:01.380Z,34.73
2022-12-19T16:48:29.925Z,38.70
2022-12-19T16:51:00.304Z,35.50
2022-12-19T16:53:27.622Z,34.43
2022-12-19T16:55:56.437Z,34.83
2022-12-19T16:58:26.341Z,40.67
2022-12-19T17:00:55.091Z,37.37
2022-12-19T17:03:27.885Z,35.07
2022-12-19T17:05:55.199Z,33.93
2022-12-19T17:08:21.958Z,37.27
2022-12-19T17:10:48.882Z,36.20
2022-12-19T17:13:17.684Z,39.07
2022-12-19T17:15:48.550Z,40.73
2022-12-19T17:18:39.000Z,33.57
2022-12-19T17:21:05.882Z,42.30
2022-12-19T17:23:32.868Z,41.30
2022-12-19T17:26:00.888Z,37.17
2022-12-19T17:28:28.739Z,39.80
2022-12-19T17:30:58.893Z,24.67
2022-12-19T17:33:33.268Z,24.67
2022-12-19T17:36:04.828Z,30.83
2022-12-19T17:38:31.584Z,27.27
2022-12-19T17:40:58.622Z,30.53
2022-12-19T17:43:25.345Z,30.67
2022-12-19T17:45:52.659Z,31.00
2022-12-19T17:48:30.518Z,34.03
2022-12-19T17:50:57.764Z,38.33
2022-12-19T17:53:25.131Z,40.37
2022-12-19T17:55:52.065Z,36.57
2022-12-19T17:58:19.022Z,62.93
2022-12-19T18:00:47.357Z,50.23
2022-12-19T18:03:25.318Z,44.47
2022-12-19T18:05:54.572Z,40.70
2022-12-19T18:08:24.911Z,39.87
2022-12-19T18:10:52.800Z,49.80
2022-12-19T18:13:20.423Z,31.20
2022-12-19T18:15:47.420Z,26.30
2022-12-19T18:18:16.367Z,25.77
2022-12-19T18:20:44.215Z,27.80
2022-12-19T18:23:19.653Z,37.13
2022-12-19T18:25:46.922Z,34.17
2022-12-19T18:28:14.285Z,41.00
2022-12-19T18:30:41.992Z,29.10
2022-12-19T18:33:18.093Z,35.00
2022-12-19T18:35:49.664Z,38.17
2022-12-19T18:38:19.149Z,32.53
2022-12-19T18:40:47.021Z,33.07
2022-12-19T18:43:14.789Z,36.37
2022-12-19T18:45:44.980Z,36.20
2022-12-19T18:48:24.063Z,42.60
2022-12-19T18:50:51.185Z,31.97
2022-12-19T18:53:21.600Z,31.60
2022-12-19T18:55:48.847Z,29.90
2022-12-19T18:58:15.533Z,27.80
2022-12-19T19:00:42.436Z,24.23
2022-12-19T19:03:15.757Z,22.73
2022-12-19T19:05:44.018Z,21.07
2022-12-19T19:08:17.913Z,24.43
2022-12-19T19:10:50.434Z,22.60
2022-12-19T19:13:20.502Z,21.10
2022-12-19T19:15:53.887Z,22.43
2022-12-19T19:18:25.622Z,32.50
2022-12-19T19:21:00.530Z,35.17
2022-12-19T19:23:32.353Z,43.57
2022-12-19T19:25:59.131Z,41.97
2022-12-19T19:28:26.133Z,41.50
2022-12-19T19:30:53.386Z,39.10
2022-12-19T19:33:24.919Z,41.37
2022-12-19T19:35:58.294Z,50.47
2022-12-19T19:38:25.479Z,37.33
2022-12-19T19:40:52.319Z,37.50
2022-12-19T19:43:19.036Z,34.47
2022-12-19T19:45:46.765Z,35.67
2022-12-19T19:48:13.684Z,35.87
2022-12-19T19:50:40.423Z,32.10
2022-12-19T19:53:07.118Z,26.17
2022-12-19T19:55:33.937Z,28.67
2022-12-19T19:58:00.696Z,29.50
2022-12-19T20:00:27.427Z,28.97
2022-12-19T20:02:54.322Z,27.43
2022-12-19T20:05:21.151Z,20.83
2022-12-19T20:07:47.829Z,23.47
2022-12-19T20:10:14.607Z,19.90
2022-12-19T20:12:41.361Z,12.83
2022-12-19T20:15:08.837Z,15.20
2022-12-19T20:17:35.819Z,17.67
2022-12-19T20:20:02.754Z,21.17
2022-12-19T20:22:29.812Z,18.03
2022-12-19T20:24:57.391Z,27.37
2022-12-19T20:27:24.183Z,23.50
2022-12-19T20:29:50.916Z,24.83
2022-12-19T20:32:17.845Z,31.70
2022-12-19T20:34:44.635Z,20.10
2022-12-19T20:37:11.340Z,19.57
2022-12-19T20:39:38.392Z,16.10
2022-12-19T20:42:06.415Z,15.30
2022-12-19T20:44:33.183Z,15.37
2022-12-19T20:47:00.123Z,16.60
2022-12-19T20:49:27.257Z,17.20
2022-12-19T20:51:54.223Z,20.37
2022-12-19T20:54:21.274Z,25.60
2022-12-19T20:56:48.028Z,27.30
2022-12-19T20:59:14.776Z,30.33
2022-12-19T21:01:41.603Z,29.00
2022-12-19T21:04:08.782Z,30.23
2022-12-19T21:06:37.895Z,30.50
2022-12-19T21:09:06.031Z,26.17
2022-12-19T21:11:33.582Z,28.33
2022-12-19T21:14:00.310Z,26.97
2022-12-19T21:16:27.162Z,27.77
2022-12-19T21:18:53.971Z,31.57
2022-12-19T21:21:27.089Z,26.57
2022-12-19T21:23:54.980Z,20.07
2022-12-19T21:26:23.450Z,22.87
2022-12-19T21:28:50.721Z,28.53
2022-12-19T21:31:19.021Z,23.57
2022-12-19T21:33:46.299Z,29.50
2022-12-19T21:36:20.092Z,27.07
2022-12-19T21:38:48.508Z,31.17
2022-12-19T21:41:18.828Z,32.97
2022-12-19T21:43:52.289Z,29.77
2022-12-19T21:46:24.655Z,19.90
2022-12-19T21:48:53.580Z,34.73
2022-12-19T21:51:22.268Z,39.63
2022-12-19T21:53:54.323Z,39.70
2022-12-19T21:56:28.639Z,32.13
2022-12-19T21:58:58.835Z,26.40
2022-12-19T22:01:26.557Z,33.23
2022-12-19T22:03:57.535Z,33.33
2022-12-19T22:06:28.335Z,28.70
2022-12-19T22:08:55.778Z,31.37
2022-12-19T22:11:23.213Z,33.50
2022-12-19T22:13:51.191Z,31.13
2022-12-19T22:16:18.457Z,29.40
2022-12-19T22:18:46.094Z,26.63
2022-12-19T22:21:15.084Z,23.23
2022-12-19T22:23:41.992Z,20.27
2022-12-19T22:26:18.941Z,25.33
2022-12-19T22:28:48.835Z,23.23
2022-12-19T22:31:31.857Z,27.07
2022-12-19T22:34:01.343Z,23.43
2022-12-19T22:36:30.416Z,22.97
2022-12-19T22:38:59.009Z,24.63
2022-12-19T22:41:26.606Z,20.67
2022-12-19T22:43:54.153Z,21.13
2022-12-19T22:46:24.067Z,19.47
2022-12-19T22:48:51.052Z,27.00
2022-12-19T22:51:19.483Z,20.73
2022-12-19T22:53:46.769Z,19.70
2022-12-19T22:56:19.033Z,17.93
2022-12-19T22:58:48.575Z,17.47
2022-12-19T23:01:18.083Z,18.03
2022-12-19T23:03:46.704Z,15.60
2022-12-19T23:06:13.925Z,16.47
2022-12-19T23:08:41.159Z,12.27
2022-12-19T23:11:11.235Z,13.17
2022-12-19T23:13:39.230Z,13.80
2022-12-19T23:16:06.252Z,13.47
2022-12-19T23:18:33.275Z,19.37
2022-12-19T23:21:10.240Z,21.10
2022-12-19T23:23:39.828Z,23.37
2022-12-19T23:26:15.154Z,19.80
2022-12-19T23:28:44.222Z,22.40
2022-12-19T23:31:13.226Z,16.70
2022-12-19T23:33:39.992Z,11.37
2022-12-19T23:36:07.526Z,10.50
2022-12-19T23:38:34.261Z,10.43
2022-12-19T23:41:07.202Z,13.83
2022-12-19T23:43:35.457Z,12.90
2022-12-19T23:46:14.940Z,14.83
2022-12-19T23:48:42.244Z,12.37
2022-12-19T23:51:12.319Z,14.60
2022-12-19T23:53:39.134Z,13.53
2022-12-19T23:56:30.018Z,12.87
2022-12-19T23:58:57.513Z,12.33
